Time;durP1;ratioP1;P1;durP2;ratioP2;P2;SDS_P1;SDS_P2;PMS_P1;PMS_P2;Temp;Humidity;BMP_temperature;BMP_pressure;BME280_temperature;BME280_humidity;BME280_pressure;Samples;Min_cycle;Max_cycle;Signal;HPM_P1;HPM_P2
2021/01/06 00:02:17;;;;;;;4.57;1.20;;;18.40;77.90;;;;;;5054732;28;20111;-67
2021/01/06 00:04:49;;;;;;;2.67;1.02;;;18.40;77.90;;;;;;5062052;28;20041;-66
2021/01/06 00:07:18;;;;;;;1.92;1.13;;;18.40;77.90;;;;;;5055919;28;20152;-67
2021/01/06 00:09:48;;;;;;;2.70;1.17;;;18.40;77.90;;;;;;5061571;28;20683;-67
2021/01/06 00:12:18;;;;;;;2.35;0.70;;;18.40;77.70;;;;;;5056548;28;20050;-68
2021/01/06 00:14:48;;;;;;;1.70;0.70;;;18.40;77.70;;;;;;5054461;28;20539;-66
2021/01/06 00:17:20;;;;;;;2.17;1.10;;;18.40;77.80;;;;;;5052717;28;20057;-67
2021/01/06 00:19:51;;;;;;;1.38;0.70;;;18.40;77.80;;;;;;5055513;28;20577;-66
2021/01/06 00:22:21;;;;;;;2.15;0.73;;;18.50;77.70;;;;;;5054732;28;20083;-65
2021/01/06 00:24:51;;;;;;;1.40;0.77;;;18.50;77.60;;;;;;5055010;28;20049;-65
2021/01/06 00:27:21;;;;;;;4.80;0.80;;;18.50;77.60;;;;;;5054028;28;20174;-64
2021/01/06 00:29:50;;;;;;;2.17;0.80;;;18.50;77.60;;;;;;5055339;28;20439;-65
2021/01/06 00:32:25;;;;;;;3.53;0.85;;;18.50;77.60;;;;;;5048759;28;20037;-65
2021/01/06 00:34:57;;;;;;;1.35;1.00;;;18.50;77.50;;;;;;5056154;28;20036;-64
2021/01/06 00:37:28;;;;;;;13.98;5.20;;;18.50;77.40;;;;;;5055194;28;20037;-65
2021/01/06 00:40:00;;;;;;;46.00;11.67;;;18.50;77.50;;;;;;5056905;28;20043;-63
2021/01/06 00:42:32;;;;;;;34.83;12.70;;;18.50;77.40;;;;;;5054539;28;20033;-65
2021/01/06 00:45:03;;;;;;;47.67;12.82;;;18.60;77.50;;;;;;5053851;28;20041;-64
2021/01/06 00:47:35;;;;;;;43.60;11.82;;;18.60;77.50;;;;;;5050281;28;20049;-62
2021/01/06 00:50:10;;;;;;;39.75;12.63;;;18.70;77.50;;;;;;5066209;28;20044;-63
2021/01/06 00:52:41;;;;;;;35.53;11.80;;;18.70;77.40;;;;;;5059246;28;20075;-65
2021/01/06 00:55:15;;;;;;;39.42;10.75;;;18.70;77.40;;;;;;5046505;28;20109;-66
2021/01/06 00:57:45;;;;;;;37.53;9.95;;;18.70;77.80;;;;;;5053757;28;20582;-66
2021/01/06 01:00:17;;;;;;;25.13;9.40;;;18.70;77.20;;;;;;5047297;28;20184;-66
2021/01/06 01:02:52;;;;;;;23.27;9.05;;;18.70;77.30;;;;;;5053657;28;20435;-65
2021/01/06 01:05:29;;;;;;;26.80;7.22;;;18.70;77.30;;;;;;5055361;28;20045;-66
2021/01/06 01:08:04;;;;;;;20.48;6.97;;;18.70;77.30;;;;;;5049845;28;20041;-64
2021/01/06 01:10:38;;;;;;;16.05;6.28;;;18.70;77.20;;;;;;5050423;28;20500;-65
2021/01/06 01:13:13;;;;;;;14.20;5.18;;;18.70;77.10;;;;;;5062884;28;20147;-65
2021/01/06 01:15:45;;;;;;;16.42;5.22;;;18.70;77.20;;;;;;5050304;28;20037;-63
2021/01/06 01:18:18;;;;;;;19.02;5.55;;;18.70;77.00;;;;;;5054147;28;20044;-65
2021/01/06 01:20:50;;;;;;;18.35;5.20;;;18.70;77.10;;;;;;5046067;28;20115;-65
2021/01/06 01:23:22;;;;;;;13.18;4.22;;;18.70;77.10;;;;;;5051008;28;20583;-62
2021/01/06 01:25:54;;;;;;;12.13;4.10;;;18.70;77.10;;;;;;5054168;28;20547;-65
2021/01/06 01:28:26;;;;;;;10.48;3.88;;;18.70;77.10;;;;;;5054509;28;20497;-65
2021/01/06 01:30:57;;;;;;;10.82;3.45;;;18.70;76.90;;;;;;5055103;28;20474;-63
2021/01/06 01:33:30;;;;;;;12.40;4.28;;;18.70;76.90;;;;;;5051746;28;20093;-65
2021/01/06 01:36:01;;;;;;;14.93;4.75;;;18.70;77.00;;;;;;5048452;28;20040;-63
2021/01/06 01:38:32;;;;;;;;;;;18.70;77.00;;;;;;5056543;28;20045;-62
2021/01/06 01:41:11;;;;;;;11.38;4.43;;;18.70;76.90;;;;;;5052909;28;19925;-63
2021/01/06 01:43:43;;;;;;;7.10;3.03;;;18.80;76.90;;;;;;5053999;28;20045;-62
2021/01/06 01:46:49;;;;;;;9.15;2.88;;;18.70;76.70;;;;;;5046279;28;20047;-65
2021/01/06 01:49:29;;;;;;;8.88;3.05;;;18.70;77.00;;;;;;5053360;28;20106;-64
2021/01/06 01:52:09;;;;;;;6.95;3.13;;;18.80;77.00;;;;;;5052166;28;20059;-64
2021/01/06 01:54:40;;;;;;;8.13;2.47;;;18.70;76.70;;;;;;5044482;28;20107;-62
2021/01/06 01:57:21;;;;;;;7.15;3.08;;;18.80;76.80;;;;;;5059146;28;20032;-63
2021/01/06 02:00:06;;;;;;;6.00;2.58;;;18.80;76.90;;;;;;5051791;28;20048;-64
2021/01/06 02:03:02;;;;;;;9.63;2.78;;;18.80;76.90;;;;;;5052344;28;20052;-63
2021/01/06 02:05:38;;;;;;;6.80;2.92;;;18.80;76.90;;;;;;5051605;28;20067;-63
2021/01/06 02:08:24;;;;;;;8.70;2.30;;;18.80;76.80;;;;;;5054355;28;20048;-63
2021/01/06 02:11:03;;;;;;;9.05;2.42;;;18.80;76.80;;;;;;5053416;28;20145;-63
2021/01/06 02:13:46;;;;;;;8.80;3.15;;;18.80;76.70;;;;;;5064801;28;20805;-62
2021/01/06 02:16:33;;;;;;;3.25;1.95;;;18.80;76.70;;;;;;5068037;28;20052;-63
2021/01/06 02:19:03;;;;;;;8.63;2.70;;;18.80;76.70;;;;;;5054498;28;20397;-63
2021/01/06 02:21:35;;;;;;;10.88;2.80;;;18.80;76.70;;;;;;5050411;28;20040;-63
2021/01/06 02:24:05;;;;;;;7.82;2.42;;;18.80;76.80;;;;;;5059888;28;20044;-63
2021/01/06 02:26:36;;;;;;;4.72;1.98;;;18.80;76.70;;;;;;5044843;28;20057;-63
2021/01/06 02:29:06;;;;;;;6.13;2.08;;;18.90;76.80;;;;;;5051357;28;20055;-63
2021/01/06 02:31:36;;;;;;;6.50;1.92;;;18.90;76.60;;;;;;5051626;28;20124;-63
2021/01/06 02:34:09;;;;;;;4.13;2.00;;;18.90;76.60;;;;;;5052617;28;20113;-62
2021/01/06 02:36:42;;;;;;;4.18;2.05;;;18.90;76.70;;;;;;5047866;28;20037;-63
2021/01/06 02:39:16;;;;;;;4.55;2.08;;;18.90;76.80;;;;;;5048333;28;20175;-63
2021/01/06 02:41:48;;;;;;;6.07;2.28;;;18.90;76.70;;;;;;5060155;28;20032;-62
2021/01/06 02:44:20;;;;;;;4.95;1.73;;;18.90;76.60;;;;;;5050185;28;20124;-63
2021/01/06 02:46:52;;;;;;;3.95;1.75;;;18.90;76.60;;;;;;5059154;28;20041;-63
2021/01/06 02:49:24;;;;;;;5.72;2.53;;;18.90;76.70;;;;;;5051827;28;20048;-62
2021/01/06 02:52:05;;;;;;;6.93;1.90;;;18.90;76.50;;;;;;5057405;28;20048;-63
2021/01/06 02:54:38;;;;;;;;;;;18.90;76.60;;;;;;5050144;28;20041;-64
2021/01/06 02:57:12;;;;;;;4.72;1.92;;;18.90;76.50;;;;;;5060632;28;19950;-63
2021/01/06 02:59:45;;;;;;;5.00;2.08;;;18.90;76.70;;;;;;5051679;28;20131;-63
2021/01/06 03:02:17;;;;;;;6.50;5.60;;;18.90;76.10;;;;;;5049782;28;20044;-65
2021/01/06 03:05:15;;;;;;;6.97;4.65;;;18.90;76.60;;;;;;5050983;28;20293;-63
2021/01/06 03:07:45;;;;;;;5.05;3.85;;;18.90;76.60;;;;;;5045466;28;20048;-63
2021/01/06 03:10:18;;;;;;;3.92;2.88;;;18.90;76.60;;;;;;5054459;28;20041;-63
2021/01/06 03:12:53;;;;;;;5.10;3.15;;;19.00;76.60;;;;;;5053492;28;20138;-64
2021/01/06 03:15:28;;;;;;;6.97;3.67;;;19.00;76.60;;;;;;5047396;28;20041;-64
2021/01/06 03:18:01;;;;;;;6.72;3.65;;;18.90;76.70;;;;;;5055770;28;20298;-64
2021/01/06 03:20:38;;;;;;;5.60;2.90;;;19.00;76.70;;;;;;5041984;28;20076;-63
2021/01/06 03:23:12;;;;;;;5.93;4.53;;;19.00;76.70;;;;;;5050056;28;20051;-64
2021/01/06 03:25:42;;;;;;;3.95;2.13;;;19.00;76.60;;;;;;5053963;28;20044;-62
2021/01/06 03:28:16;;;;;;;3.57;2.57;;;19.00;76.50;;;;;;5060253;28;20118;-63
2021/01/06 03:30:48;;;;;;;5.25;4.47;;;19.00;76.40;;;;;;5053881;28;20138;-63
2021/01/06 03:33:26;;;;;;;5.75;3.40;;;19.00;76.40;;;;;;5044650;28;20045;-61
2021/01/06 03:36:08;;;;;;;3.40;1.95;;;19.00;77.10;;;;;;5045735;28;20048;-63
2021/01/06 03:38:42;;;;;;;3.35;2.20;;;19.00;76.40;;;;;;5043712;28;20048;-62
2021/01/06 03:41:15;;;;;;;4.32;2.22;;;19.00;76.40;;;;;;5049391;28;20391;-62
2021/01/06 03:43:51;;;;;;;4.82;2.20;;;19.00;76.30;;;;;;5055530;28;20114;-61
2021/01/06 03:46:54;;;;;;;5.88;2.63;;;19.00;76.50;;;;;;5049472;28;20142;-63
2021/01/06 03:49:47;;;;;;;7.53;5.78;;;19.00;76.40;;;;;;5025518;28;20117;-63
2021/01/06 03:52:36;;;;;;;5.22;3.05;;;19.00;76.30;;;;;;5042296;28;20051;-62
2021/01/06 03:55:27;;;;;;;3.85;2.65;;;19.00;76.30;;;;;;5049637;28;20032;-64
2021/01/06 03:57:58;;;;;;;4.90;3.42;;;19.00;76.30;;;;;;5052709;28;20045;-63
2021/01/06 04:00:46;;;;;;;8.98;8.13;;;19.00;76.10;;;;;;5044569;28;20143;-63
2021/01/06 04:03:50;;;;;;;7.75;7.05;;;19.10;76.20;;;;;;5054379;28;20515;-64
2021/01/06 04:06:24;;;;;;;8.73;8.00;;;19.10;76.30;;;;;;5023286;28;20045;-66
2021/01/06 04:08:57;;;;;;;6.50;3.78;;;19.10;76.40;;;;;;5048920;28;20123;-63
2021/01/06 04:11:36;;;;;;;5.85;4.22;;;19.10;76.40;;;;;;5050043;28;20051;-63
2021/01/06 04:14:08;;;;;;;6.40;3.25;;;19.20;76.50;;;;;;5053577;28;20044;-62
2021/01/06 04:16:39;;;;;;;8.80;5.57;;;19.20;76.40;;;;;;5049560;28;20120;-59
2021/01/06 04:19:10;;;;;;;6.00;4.50;;;19.30;76.60;;;;;;5059615;28;20044;-62
2021/01/06 04:21:42;;;;;;;9.68;4.22;;;19.30;76.70;;;;;;5050980;28;20039;-63
2021/01/06 04:24:13;;;;;;;8.35;3.03;;;19.40;76.60;;;;;;5057589;28;20037;-62
2021/01/06 04:26:45;;;;;;;9.18;5.38;;;19.50;76.70;;;;;;5051399;28;20040;-68
2021/01/06 04:29:17;;;;;;;9.45;4.78;;;19.50;76.60;;;;;;5059742;28;20041;-61
2021/01/06 04:31:48;;;;;;;10.43;4.57;;;19.60;76.60;;;;;;5056577;28;20044;-68
2021/01/06 04:34:20;;;;;;;10.05;9.00;;;19.60;76.40;;;;;;5055822;28;20571;-60
2021/01/06 04:36:51;;;;;;;14.88;13.85;;;19.70;76.40;;;;;;5040040;28;20383;-62
2021/01/06 04:39:21;;;;;;;27.73;25.63;;;19.80;76.30;;;;;;5061329;28;20121;-60
2021/01/06 04:42:05;;;;;;;26.30;24.45;;;19.80;76.40;;;;;;5057586;28;20033;-67
2021/01/06 04:44:43;;;;;;;13.70;11.73;;;19.80;75.90;;;;;;5058719;28;20090;-63
2021/01/06 04:47:51;;;;;;;5.43;3.72;;;19.90;76.00;;;;;;5056825;28;20476;-64
2021/01/06 04:50:53;;;;;;;11.48;10.57;;;19.90;75.90;;;;;;5061110;28;20036;-62
2021/01/06 04:53:42;;;;;;;;;;;19.90;75.70;;;;;;5056717;28;20029;-70
2021/01/06 04:56:44;;;;;;;4.68;3.80;;;20.00;75.60;;;;;;5061610;28;19931;-65
2021/01/06 05:00:12;;;;;;;17.23;16.15;;;20.00;75.60;;;;;;5057974;28;20223;-63
2021/01/06 05:03:06;;;;;;;19.35;17.95;;;20.00;75.60;;;;;;5016196;28;20595;-69
2021/01/06 05:06:08;;;;;;;11.77;10.73;;;20.10;75.50;;;;;;5026303;28;20132;-62
2021/01/06 05:08:48;;;;;;;10.15;9.45;;;20.10;75.40;;;;;;5005627;28;20056;-68
2021/01/06 05:11:30;;;;;;;17.35;16.02;;;20.10;75.40;;;;;;5041210;28;20065;-62
2021/01/06 05:14:25;;;;;;;13.75;12.80;;;20.10;75.30;;;;;;5023496;28;20039;-64
2021/01/06 05:16:58;;;;;;;6.22;4.57;;;20.20;75.30;;;;;;5041993;28;20073;-65
2021/01/06 05:19:33;;;;;;;4.13;2.33;;;20.20;75.10;;;;;;5039744;28;20564;-69
2021/01/06 05:22:05;;;;;;;5.18;3.78;;;20.20;75.10;;;;;;5041975;28;20053;-62
2021/01/06 05:24:43;;;;;;;24.67;22.83;;;20.20;75.00;;;;;;5041301;28;20127;-63
2021/01/06 05:27:20;;;;;;;21.77;20.30;;;20.30;74.90;;;;;;5025081;28;20049;-68
2021/01/06 05:30:15;;;;;;;12.25;11.38;;;20.30;75.00;;;;;;5039104;28;20136;-68
2021/01/06 05:32:50;;;;;;;7.95;6.53;;;20.30;74.80;;;;;;5035908;28;20110;-62
2021/01/06 05:35:26;;;;;;;13.15;12.43;;;20.40;74.80;;;;;;5040164;28;20045;-66
2021/01/06 05:38:01;;;;;;;10.63;9.82;;;20.40;74.70;;;;;;5058256;28;20063;-67
2021/01/06 05:40:34;;;;;;;11.85;10.85;;;20.40;74.60;;;;;;5061224;28;20133;-68
2021/01/06 05:43:08;;;;;;;15.48;14.25;;;20.50;74.60;;;;;;5060067;28;20044;-64
2021/01/06 05:45:48;;;;;;;11.93;10.77;;;20.50;74.40;;;;;;5056912;28;20098;-59
2021/01/06 05:48:32;;;;;;;21.45;20.20;;;20.50;74.20;;;;;;5057412;28;20036;-62
2021/01/06 05:51:27;;;;;;;8.32;7.70;;;20.50;74.20;;;;;;5057896;28;20045;-64
2021/01/06 05:54:36;;;;;;;4.55;1.85;;;20.50;74.10;;;;;;5058840;28;20186;-62
2021/01/06 05:57:25;;;;;;;2.60;2.17;;;20.60;74.10;;;;;;5056343;28;20048;-69
2021/01/06 06:00:27;;;;;;;16.67;15.55;;;20.60;74.10;;;;;;5059353;28;20040;-66
2021/01/06 06:03:15;;;;;;;9.57;8.88;;;20.60;74.00;;;;;;5051199;28;20089;-68
2021/01/06 06:06:04;;;;;;;2.83;2.08;;;20.60;74.00;;;;;;5041912;28;20044;-62
2021/01/06 06:08:48;;;;;;;18.10;16.77;;;20.60;73.70;;;;;;5076133;28;20045;-64
2021/01/06 06:11:27;;;;;;;33.65;31.08;;;20.70;73.70;;;;;;5058353;28;20041;-64
2021/01/06 06:14:49;;;;;;;27.70;25.83;;;20.70;73.60;;;;;;5044881;28;20076;-65
2021/01/06 06:17:50;;;;;;;12.57;11.85;;;20.70;73.60;;;;;;5051834;28;20431;-60
2021/01/06 06:20:45;;;;;;;13.68;12.63;;;20.70;73.40;;;;;;5058001;28;20151;-61
2021/01/06 06:23:49;;;;;;;4.97;3.80;;;20.70;73.60;;;;;;5053024;28;20135;-67
2021/01/06 06:26:27;;;;;;;2.65;2.28;;;20.70;73.40;;;;;;5055311;28;20106;-67
2021/01/06 06:29:13;;;;;;;4.15;3.28;;;20.70;73.20;;;;;;5059886;28;20040;-67
2021/01/06 06:31:56;;;;;;;4.88;3.33;;;20.70;73.10;;;;;;5072477;28;20599;-61
2021/01/06 06:34:39;;;;;;;3.20;2.13;;;20.70;73.20;;;;;;5061245;28;20108;-68
2021/01/06 06:37:19;;;;;;;5.60;4.28;;;20.70;73.10;;;;;;5055687;28;22269;-67
2021/01/06 06:40:07;;;;;;;7.93;7.38;;;20.70;73.00;;;;;;5051619;28;20045;-65
2021/01/06 06:42:54;;;;;;;5.28;4.97;;;20.70;73.00;;;;;;5052465;28;20040;-61
2021/01/06 06:45:39;;;;;;;10.02;9.35;;;20.60;73.00;;;;;;5041126;28;20055;-63
2021/01/06 06:48:36;;;;;;;4.53;4.22;;;20.60;72.90;;;;;;5056601;28;21015;-70
2021/01/06 06:51:18;;;;;;;8.27;7.72;;;20.60;72.90;;;;;;5061714;28;20242;-70
2021/01/06 06:53:54;;;;;;;9.52;8.63;;;20.60;72.80;;;;;;5052281;28;20106;-63
2021/01/06 06:56:52;;;;;;;6.10;5.55;;;20.60;72.80;;;;;;5051777;28;20116;-65
2021/01/06 06:59:30;;;;;;;11.35;5.55;;;20.60;72.70;;;;;;5032968;28;20083;-70
2021/01/06 07:02:04;;;;;;;9.63;5.40;;;20.60;72.80;;;;;;5042243;28;20043;-62
2021/01/06 07:04:47;;;;;;;10.25;5.40;;;20.50;72.70;;;;;;5054662;28;20051;-62
2021/01/06 07:07:37;;;;;;;10.05;8.77;;;20.60;72.80;;;;;;5059141;28;20037;-69
2021/01/06 07:10:23;;;;;;;10.77;7.28;;;20.60;72.80;;;;;;5056871;28;20058;-70
2021/01/06 07:13:07;;;;;;;14.35;5.90;;;20.50;73.40;;;;;;5051040;28;20041;-70
2021/01/06 07:15:50;;;;;;;12.30;5.57;;;20.50;72.90;;;;;;5058617;28;20135;-70
2021/01/06 07:18:26;;;;;;;11.02;5.18;;;20.50;72.90;;;;;;5055716;28;20041;-69
2021/01/06 07:21:17;;;;;;;14.15;8.73;;;20.50;72.90;;;;;;5058112;28;20480;-63
2021/01/06 07:24:08;;;;;;;9.27;4.80;;;20.50;73.50;;;;;;5056791;28;20052;-63
2021/01/06 07:27:02;;;;;;;13.40;8.73;;;20.50;73.10;;;;;;5056795;28;20153;-63
2021/01/06 07:29:47;;;;;;;12.60;10.32;;;20.50;73.10;;;;;;5051792;28;20406;-67
2021/01/06 07:32:23;;;;;;;14.35;11.02;;;20.50;73.10;;;;;;5056144;28;20151;-63
2021/01/06 07:34:59;;;;;;;14.95;13.45;;;20.50;73.10;;;;;;5055945;28;20041;-71
2021/01/06 07:37:56;;;;;;;10.32;7.95;;;20.50;73.10;;;;;;5058201;28;20041;-64
2021/01/06 07:40:36;;;;;;;14.45;9.70;;;20.50;73.30;;;;;;5057161;28;20037;-63
2021/01/06 07:43:17;;;;;;;10.93;8.27;;;20.50;73.20;;;;;;5057585;28;20045;-63
2021/01/06 07:46:02;;;;;;;11.52;6.03;;;20.50;73.10;;;;;;5050922;28;20044;-63
2021/01/06 07:48:44;;;;;;;10.98;8.13;;;20.50;73.10;;;;;;5055035;28;20048;-64
2021/01/06 07:51:38;;;;;;;10.07;5.80;;;20.50;73.20;;;;;;5054375;28;20098;-62
2021/01/06 07:54:13;;;;;;;9.23;4.90;;;20.50;73.10;;;;;;5056597;28;20522;-62
2021/01/06 07:56:52;;;;;;;12.20;6.47;;;20.50;73.10;;;;;;5052719;28;20457;-70
2021/01/06 07:59:53;;;;;;;10.95;9.95;;;20.50;73.20;;;;;;5057601;28;20563;-70
2021/01/06 08:02:31;;;;;;;14.23;12.73;;;20.50;73.30;;;;;;5052854;28;20044;-72
2021/01/06 08:05:30;;;;;;;9.60;6.80;;;20.50;73.20;;;;;;5052086;28;20048;-63
2021/01/06 08:08:11;;;;;;;12.45;9.00;;;20.50;73.20;;;;;;5056259;28;20559;-63
2021/01/06 08:10:48;;;;;;;7.72;5.28;;;20.50;73.10;;;;;;5056030;28;20111;-63
2021/01/06 08:13:28;;;;;;;11.57;10.40;;;20.50;73.30;;;;;;5057933;28;20049;-70
2021/01/06 08:16:06;;;;;;;8.48;4.32;;;20.50;73.20;;;;;;5053640;28;20099;-72
2021/01/06 08:18:54;;;;;;;7.80;5.78;;;20.50;73.40;;;;;;5051770;28;20054;-63
2021/01/06 08:21:33;;;;;;;7.80;4.28;;;20.50;73.30;;;;;;5051783;28;20050;-63
2021/01/06 08:24:06;;;;;;;13.68;10.45;;;20.50;73.40;;;;;;5056301;28;20043;-71
2021/01/06 08:26:35;;;;;;;;;;;20.50;73.30;;;;;;5056356;28;20134;-71
2021/01/06 08:29:16;;;;;;;12.52;8.27;;;20.40;73.20;;;;;;5056603;28;19928;-70
2021/01/06 08:31:50;;;;;;;8.70;5.40;;;20.40;73.30;;;;;;5054792;28;20049;-64
2021/01/06 08:34:29;;;;;;;8.32;7.45;;;20.40;73.50;;;;;;5055440;28;20395;-64
2021/01/06 08:37:07;;;;;;;6.43;5.13;;;20.40;73.40;;;;;;5050270;28;20497;-64
2021/01/06 08:39:54;;;;;;;8.63;7.18;;;20.40;73.60;;;;;;5057191;28;20177;-64
2021/01/06 08:42:38;;;;;;;17.27;15.98;;;20.40;73.50;;;;;;5056645;28;20041;-63
2021/01/06 08:45:19;;;;;;;14.18;12.75;;;20.40;73.50;;;;;;5057233;28;20054;-71
2021/01/06 08:47:50;;;;;;;18.70;17.13;;;20.50;73.50;;;;;;5054888;28;20079;-63
2021/01/06 08:50:36;;;;;;;27.00;24.80;;;20.40;73.40;;;;;;5055162;28;20048;-67
2021/01/06 08:53:08;;;;;;;31.17;28.52;;;20.40;73.60;;;;;;5048792;28;20040;-71
2021/01/06 08:56:11;;;;;;;14.68;13.45;;;20.40;73.50;;;;;;5057296;28;20040;-64
2021/01/06 08:58:49;;;;;;;18.77;17.08;;;20.40;73.60;;;;;;5053415;28;20055;-63
2021/01/06 09:01:49;;;;;;;12.30;11.07;;;20.40;73.70;;;;;;5055836;28;20045;-70
2021/01/06 09:04:42;;;;;;;14.50;13.07;;;20.40;73.60;;;;;;5054044;28;20353;-68
2021/01/06 09:07:42;;;;;;;14.63;13.18;;;20.40;73.70;;;;;;5060095;28;20047;-64
2021/01/06 09:10:43;;;;;;;12.65;10.80;;;20.40;73.70;;;;;;5046859;28;20048;-71
2021/01/06 09:13:22;;;;;;;9.55;8.70;;;20.30;73.70;;;;;;5066136;28;20059;-71
2021/01/06 09:16:38;;;;;;;8.80;7.90;;;20.30;73.70;;;;;;5061881;28;20036;-71
2021/01/06 09:19:20;;;;;;;9.18;6.65;;;20.30;74.00;;;;;;5035240;28;20539;-73
2021/01/06 09:21:56;;;;;;;24.88;22.65;;;20.30;74.00;;;;;;5059538;28;20044;-72
2021/01/06 09:24:32;;;;;;;20.50;18.83;;;20.30;74.00;;;;;;5054100;28;20072;-63
2021/01/06 09:27:24;;;;;;;14.32;13.10;;;20.30;74.00;;;;;;5055773;28;20049;-66
2021/01/06 09:29:57;;;;;;;13.85;12.80;;;20.30;74.00;;;;;;5054120;28;20385;-71
2021/01/06 09:32:37;;;;;;;14.93;13.50;;;20.30;74.10;;;;;;5056977;28;20440;-73
2021/01/06 09:35:13;;;;;;;18.52;17.08;;;20.30;74.10;;;;;;5054733;28;20040;-63
2021/01/06 09:38:06;;;;;;;20.40;18.63;;;20.20;74.10;;;;;;5058268;28;20037;-72
2021/01/06 09:40:37;;;;;;;17.63;16.10;;;20.20;74.20;;;;;;5033638;28;20682;-72
2021/01/06 09:43:23;;;;;;;25.00;22.65;;;20.20;74.30;;;;;;5052718;28;20041;-72
2021/01/06 09:45:53;;;;;;;30.17;27.58;;;20.20;74.30;;;;;;5055471;28;20048;-64
2021/01/06 09:48:30;;;;;;;24.17;22.05;;;20.20;74.40;;;;;;5058449;28;20593;-73
2021/01/06 09:51:02;;;;;;;14.18;13.02;;;20.20;74.40;;;;;;5056510;28;20093;-64
2021/01/06 09:53:36;;;;;;;18.35;16.98;;;20.10;74.30;;;;;;5059206;28;20040;-62
2021/01/06 09:56:06;;;;;;;19.52;18.05;;;20.10;74.40;;;;;;5055637;28;20369;-63
2021/01/06 09:58:39;;;;;;;17.77;16.15;;;20.10;74.50;;;;;;5056563;28;20049;-64
2021/01/06 10:01:16;;;;;;;15.15;14.05;;;20.10;74.60;;;;;;5052845;28;20087;-64
2021/01/06 10:03:51;;;;;;;11.23;10.27;;;20.10;74.40;;;;;;5055468;28;20056;-73
2021/01/06 10:06:58;;;;;;;20.25;18.30;;;20.10;74.50;;;;;;5054823;28;20075;-64
2021/01/06 10:09:28;;;;;;;10.05;9.15;;;20.10;74.60;;;;;;5057530;28;20163;-73
2021/01/06 10:12:16;;;;;;;10.50;8.98;;;20.10;74.60;;;;;;5056505;28;20227;-72
2021/01/06 10:14:55;;;;;;;9.25;7.97;;;20.10;74.60;;;;;;5051590;28;20049;-73
2021/01/06 10:17:37;;;;;;;17.15;15.50;;;20.10;74.70;;;;;;5052323;28;20152;-73
2021/01/06 10:20:31;;;;;;;17.20;15.73;;;20.10;74.60;;;;;;5054920;28;20037;-73
2021/01/06 10:23:28;;;;;;;13.73;12.73;;;20.10;74.70;;;;;;5058170;28;20044;-65
2021/01/06 10:26:03;;;;;;;11.35;10.45;;;20.00;74.60;;;;;;5050514;28;20053;-73
2021/01/06 10:28:47;;;;;;;9.70;8.85;;;20.00;74.70;;;;;;5056208;28;20048;-73
2021/01/06 10:31:22;;;;;;;15.48;14.10;;;20.00;74.70;;;;;;5052752;28;20348;-73
2021/01/06 10:34:19;;;;;;;15.45;14.32;;;20.00;74.80;;;;;;5053235;28;20650;-73
2021/01/06 10:37:07;;;;;;;14.70;13.68;;;20.00;74.80;;;;;;5053609;28;20124;-64
2021/01/06 10:39:41;;;;;;;12.25;11.48;;;20.00;74.70;;;;;;5056761;28;20139;-73
2021/01/06 10:42:23;;;;;;;8.90;8.10;;;19.90;74.80;;;;;;5057852;28;20111;-73
2021/01/06 10:44:53;;;;;;;5.53;4.47;;;19.90;74.70;;;;;;5058240;28;20348;-64
2021/01/06 10:47:35;;;;;;;5.85;3.72;;;19.90;74.70;;;;;;5054222;28;20048;-69
2021/01/06 10:50:37;;;;;;;4.65;3.38;;;19.90;74.90;;;;;;5060539;28;20083;-73
2021/01/06 10:53:19;;;;;;;5.13;3.92;;;19.90;75.20;;;;;;5065049;28;20043;-70
2021/01/06 10:56:06;;;;;;;5.63;5.00;;;20.00;75.40;;;;;;5067822;28;20504;-72
2021/01/06 10:58:51;;;;;;;13.07;12.05;;;20.00;75.40;;;;;;5062953;28;20039;-65
2021/01/06 11:01:28;;;;;;;38.08;35.53;;;20.10;75.50;;;;;;5068396;28;20060;-63
2021/01/06 11:04:31;;;;;;;26.08;24.23;;;20.30;75.70;;;;;;5060985;28;20077;-75
2021/01/06 11:07:23;;;;;;;25.33;23.45;;;20.40;75.70;;;;;;5059413;28;20115;-73
2021/01/06 11:10:23;;;;;;;29.38;26.98;;;20.50;75.70;;;;;;5068281;28;20041;-62
2021/01/06 11:13:34;;;;;;;37.25;33.97;;;20.60;75.50;;;;;;5065194;28;20094;-72
2021/01/06 11:16:12;;;;;;;39.08;35.67;;;20.80;75.50;;;;;;5065351;28;20090;-71
2021/01/06 11:18:53;;;;;;;36.17;33.08;;;20.90;75.40;;;;;;5064821;28;20061;-70
2021/01/06 11:21:39;;;;;;;48.03;43.30;;;21.00;75.30;;;;;;5068195;28;20113;-69
2021/01/06 11:24:50;;;;;;;47.78;44.20;;;21.20;75.10;;;;;;5061700;28;20070;-64
2021/01/06 11:27:42;;;;;;;67.03;60.47;;;21.30;74.80;;;;;;5080288;28;20061;-64
2021/01/06 11:30:24;;;;;;;32.97;29.75;;;21.40;74.90;;;;;;5068999;28;20102;-69
2021/01/06 11:33:14;;;;;;;32.38;28.92;;;21.50;74.50;;;;;;5062719;28;20118;-63
2021/01/06 11:36:07;;;;;;;35.03;30.83;;;21.60;74.40;;;;;;5066040;28;20064;-69
2021/01/06 11:38:42;;;;;;;30.75;27.65;;;21.70;74.20;;;;;;5059756;28;20127;-70
2021/01/06 11:41:46;;;;;;;32.05;29.67;;;21.80;74.00;;;;;;5078546;28;20032;-64
2021/01/06 11:44:59;;;;;;;30.98;28.35;;;21.90;73.90;;;;;;4998524;28;20054;-63
2021/01/06 11:47:49;;;;;;;16.80;15.38;;;22.00;73.70;;;;;;5067710;28;20033;-73
2021/01/06 11:50:45;;;;;;;20.75;18.95;;;22.10;73.50;;;;;;5065167;28;20102;-71
2021/01/06 11:53:26;;;;;;;9.48;8.98;;;22.10;73.20;;;;;;5066983;28;20051;-73
2021/01/06 11:56:24;;;;;;;2.65;2.38;;;22.20;73.00;;;;;;5061057;28;20044;-72
2021/01/06 11:59:30;;;;;;;1.52;1.40;;;22.30;72.80;;;;;;5066507;28;20254;-71
2021/01/06 12:02:02;;;;;;;1.77;1.67;;;22.30;72.60;;;;;;5066962;28;20040;-68
2021/01/06 12:04:56;;;;;;;1.95;1.75;;;22.40;72.40;;;;;;5063705;28;20155;-69
2021/01/06 12:07:41;;;;;;;2.10;1.45;;;22.40;72.20;;;;;;5066786;28;20084;-63
2021/01/06 12:10:27;;;;;;;1.63;0.90;;;22.50;72.10;;;;;;5062892;28;20147;-71
2021/01/06 12:13:03;;;;;;;2.30;1.83;;;22.60;71.90;;;;;;5061007;28;20049;-68
2021/01/06 12:15:52;;;;;;;1.70;1.25;;;22.60;71.80;;;;;;5062658;28;20097;-63
2021/01/06 12:18:35;;;;;;;1.30;1.20;;;22.60;71.60;;;;;;5065466;28;20038;-63
2021/01/06 12:21:35;;;;;;;2.28;1.40;;;22.70;71.50;;;;;;5061572;28;20041;-65
2021/01/06 12:24:26;;;;;;;;;;;22.70;71.50;;;;;;5066098;28;20094;-62
2021/01/06 12:27:17;;;;;;;3.03;2.05;;;22.80;71.40;;;;;;5061153;28;20011;-62
2021/01/06 12:29:51;;;;;;;8.48;7.97;;;22.80;71.30;;;;;;5059122;28;20079;-62
2021/01/06 12:32:48;;;;;;;1.42;1.23;;;22.80;71.10;;;;;;5059299;28;20376;-63
2021/01/06 12:35:20;;;;;;;1.73;1.63;;;22.90;71.10;;;;;;5058925;28;20036;-63
2021/01/06 12:38:07;;;;;;;2.22;1.58;;;22.90;70.90;;;;;;5060638;28;20029;-62
2021/01/06 12:41:04;;;;;;;2.55;1.40;;;23.00;70.90;;;;;;5065945;28;20040;-62
2021/01/06 12:43:51;;;;;;;2.10;1.20;;;23.00;70.70;;;;;;5062832;28;20102;-63
2021/01/06 12:46:32;;;;;;;1.20;1.10;;;23.00;70.60;;;;;;5061573;28;20057;-63
2021/01/06 12:49:15;;;;;;;1.48;1.17;;;23.10;70.50;;;;;;5065816;28;20041;-61
2021/01/06 12:52:13;;;;;;;1.65;1.08;;;23.10;70.50;;;;;;5066468;28;20102;-65
2021/01/06 12:55:06;;;;;;;2.05;0.98;;;23.10;70.20;;;;;;5069253;28;20043;-64
2021/01/06 12:57:51;;;;;;;1.45;1.10;;;23.20;70.20;;;;;;5064446;28;20033;-63
2021/01/06 13:00:25;;;;;;;2.17;1.20;;;23.20;70.00;;;;;;5066335;28;20047;-64
2021/01/06 13:03:28;;;;;;;2.47;1.38;;;23.30;70.10;;;;;;5061536;28;20049;-63
2021/01/06 13:06:08;;;;;;;2.03;0.90;;;23.30;70.00;;;;;;5062857;28;20037;-63
2021/01/06 13:08:45;;;;;;;1.23;1.13;;;23.30;69.90;;;;;;5064676;28;20037;-62
2021/01/06 13:11:31;;;;;;;1.88;1.00;;;23.40;69.80;;;;;;5065976;28;20098;-62
2021/01/06 13:14:16;;;;;;;1.15;1.05;;;23.40;69.70;;;;;;5064293;28;20045;-66
2021/01/06 13:17:12;;;;;;;3.42;1.23;;;23.40;69.60;;;;;;5069251;28;20067;-62
2021/01/06 13:20:11;;;;;;;2.80;1.42;;;23.30;69.00;;;;;;5064123;28;20068;-63
2021/01/06 13:22:43;;;;;;;2.00;1.50;;;23.40;69.20;;;;;;5064729;28;20036;-64
2021/01/06 13:25:32;;;;;;;2.08;1.27;;;23.40;69.00;;;;;;5069997;28;20049;-63
2021/01/06 13:28:28;;;;;;;1.45;1.35;;;23.40;69.10;;;;;;5066556;28;20095;-69
2021/01/06 13:31:33;;;;;;;1.30;1.20;;;23.50;69.00;;;;;;5069515;28;20033;-62
2021/01/06 13:34:20;;;;;;;1.27;1.00;;;23.50;68.80;;;;;;5065167;28;20041;-68
2021/01/06 13:36:55;;;;;;;1.00;0.90;;;23.60;68.80;;;;;;5066057;28;20032;-64
2021/01/06 13:39:31;;;;;;;1.92;1.25;;;23.60;68.70;;;;;;5064029;28;20558;-65
2021/01/06 13:42:28;;;;;;;1.33;0.98;;;23.60;68.70;;;;;;5069158;28;20120;-66
2021/01/06 13:45:09;;;;;;;1.90;1.10;;;23.60;68.60;;;;;;5045048;28;20299;-65
2021/01/06 13:48:05;;;;;;;1.20;1.20;;;23.70;68.70;;;;;;5067610;28;20072;-65
2021/01/06 13:50:49;;;;;;;1.88;1.42;;;23.70;68.50;;;;;;5082563;28;20096;-66
2021/01/06 13:53:54;;;;;;;1.23;1.13;;;23.80;68.50;;;;;;5062711;28;20028;-65
2021/01/06 13:56:47;;;;;;;2.15;1.23;;;23.80;68.60;;;;;;5065074;28;20036;-68
2021/01/06 13:59:44;;;;;;;2.70;1.10;;;23.80;68.40;;;;;;5064772;28;20048;-69